sensor_id;sensor_type;location;lat;lon;timestamp;temperature;humidity
33699;DHT22;20032;52.436;13.312;2023-05-25T00:00:40;10.90;99.90
33699;DHT22;20032;52.436;13.312;2023-05-25T00:03:05;10.90;99.90
33699;DHT22;20032;52.436;13.312;2023-05-25T00:05:32;10.80;99.90
33699;DHT22;20032;52.436;13.312;2023-05-25T00:08:00;10.70;99.90
33699;DHT22;20032;52.436;13.312;2023-05-25T00:10:25;10.70;99.90
33699;DHT22;20032;52.436;13.312;2023-05-25T00:12:51;10.70;99.90
33699;DHT22;20032;52.436;13.312;2023-05-25T00:15:16;10.60;99.90
33699;DHT22;20032;52.436;13.312;2023-05-25T00:17:43;10.70;99.90
33699;DHT22;20032;52.436;13.312;2023-05-25T00:20:08;10.60;99.90
33699;DHT22;20032;52.436;13.312;2023-05-25T00:22:35;10.60;99.90
33699;DHT22;20032;52.436;13.312;2023-05-25T00:25:02;10.60;99.90
33699;DHT22;20032;52.436;13.312;2023-05-25T00:27:27;10.60;99.90
33699;DHT22;20032;52.436;13.312;2023-05-25T00:29:54;10.60;99.90
33699;DHT22;20032;52.436;13.312;2023-05-25T00:32:19;10.50;99.90
33699;DHT22;20032;52.436;13.312;2023-05-25T00:34:45;10.50;99.90
33699;DHT22;20032;52.436;13.312;2023-05-25T00:37:11;10.50;99.90
33699;DHT22;20032;52.436;13.312;2023-05-25T00:39:36;10.50;99.90
33699;DHT22;20032;52.436;13.312;2023-05-25T00:42:02;10.50;99.90
33699;DHT22;20032;52.436;13.312;2023-05-25T00:44:29;10.50;99.90
33699;DHT22;20032;52.436;13.312;2023-05-25T00:46:56;10.50;99.90
33699;DHT22;20032;52.436;13.312;2023-05-25T00:49:21;10.50;99.90
33699;DHT22;20032;52.436;13.312;2023-05-25T00:51:47;10.40;99.90
33699;DHT22;20032;52.436;13.312;2023-05-25T00:54:13;10.50;99.90
33699;DHT22;20032;52.436;13.312;2023-05-25T00:56:50;10.40;99.90
33699;DHT22;20032;52.436;13.312;2023-05-25T00:59:37;10.40;99.90
33699;DHT22;20032;52.436;13.312;2023-05-25T01:02:08;10.40;99.90
33699;DHT22;20032;52.436;13.312;2023-05-25T01:04:37;10.40;99.90
33699;DHT22;20032;52.436;13.312;2023-05-25T01:07:04;10.40;99.90
33699;DHT22;20032;52.436;13.312;2023-05-25T01:09:31;10.30;99.90
33699;DHT22;20032;52.436;13.312;2023-05-25T01:11:59;10.30;99.90
33699;DHT22;20032;52.436;13.312;2023-05-25T01:14:27;10.20;99.90
33699;DHT22;20032;52.436;13.312;2023-05-25T01:16:52;10.10;99.90
33699;DHT22;20032;52.436;13.312;2023-05-25T01:19:19;10.20;99.90
33699;DHT22;20032;52.436;13.312;2023-05-25T01:22:04;10.20;99.90
33699;DHT22;20032;52.436;13.312;2023-05-25T01:25:06;10.20;99.90
33699;DHT22;20032;52.436;13.312;2023-05-25T01:27:24;10.10;99.90
33699;DHT22;20032;52.436;13.312;2023-05-25T01:29:52;10.10;99.90
33699;DHT22;20032;52.436;13.312;2023-05-25T01:32:18;10.10;99.90
33699;DHT22;20032;52.436;13.312;2023-05-25T01:34:44;10.00;99.90
33699;DHT22;20032;52.436;13.312;2023-05-25T01:37:11;10.00;99.90
33699;DHT22;20032;52.436;13.312;2023-05-25T01:39:38;10.00;99.90
33699;DHT22;20032;52.436;13.312;2023-05-25T01:42:04;10.10;99.90
33699;DHT22;20032;52.436;13.312;2023-05-25T01:44:30;10.10;99.90
33699;DHT22;20032;52.436;13.312;2023-05-25T01:47:03;10.10;99.90
33699;DHT22;20032;52.436;13.312;2023-05-25T01:49:43;10.10;99.90
33699;DHT22;20032;52.436;13.312;2023-05-25T01:52:14;10.10;99.90
33699;DHT22;20032;52.436;13.312;2023-05-25T01:55:04;10.00;99.90
33699;DHT22;20032;52.436;13.312;2023-05-25T01:57:32;10.00;99.90
33699;DHT22;20032;52.436;13.312;2023-05-25T02:00:01;10.00;99.90
33699;DHT22;20032;52.436;13.312;2023-05-25T02:02:28;10.00;99.90
33699;DHT22;20032;52.436;13.312;2023-05-25T02:04:54;9.90;99.90
33699;DHT22;20032;52.436;13.312;2023-05-25T02:07:22;9.90;99.90
33699;DHT22;20032;52.436;13.312;2023-05-25T02:09:47;9.90;99.90
33699;DHT22;20032;52.436;13.312;2023-05-25T02:12:13;9.90;99.90
33699;DHT22;20032;52.436;13.312;2023-05-25T02:14:38;9.80;99.90
33699;DHT22;20032;52.436;13.312;2023-05-25T02:17:04;9.80;99.90
33699;DHT22;20032;52.436;13.312;2023-05-25T02:19:29;9.70;99.90
33699;DHT22;20032;52.436;13.312;2023-05-25T02:21:55;9.70;99.90
33699;DHT22;20032;52.436;13.312;2023-05-25T02:24:23;9.70;99.90
33699;DHT22;20032;52.436;13.312;2023-05-25T02:26:49;9.60;99.90
33699;DHT22;20032;52.436;13.312;2023-05-25T02:29:16;9.60;99.90
33699;DHT22;20032;52.436;13.312;2023-05-25T02:31:41;9.60;99.90
33699;DHT22;20032;52.436;13.312;2023-05-25T02:34:06;9.60;99.90
33699;DHT22;20032;52.436;13.312;2023-05-25T02:36:32;9.60;99.90
33699;DHT22;20032;52.436;13.312;2023-05-25T02:38:59;9.60;99.90
33699;DHT22;20032;52.436;13.312;2023-05-25T02:41:25;9.70;99.90
33699;DHT22;20032;52.436;13.312;2023-05-25T02:43:51;9.70;99.90
33699;DHT22;20032;52.436;13.312;2023-05-25T02:46:17;9.80;99.90
33699;DHT22;20032;52.436;13.312;2023-05-25T02:48:43;9.70;99.90
33699;DHT22;20032;52.436;13.312;2023-05-25T02:51:09;9.70;99.90
33699;DHT22;20032;52.436;13.312;2023-05-25T02:53:34;9.70;99.90
33699;DHT22;20032;52.436;13.312;2023-05-25T02:56:01;9.80;99.90
33699;DHT22;20032;52.436;13.312;2023-05-25T02:58:28;9.80;99.90
33699;DHT22;20032;52.436;13.312;2023-05-25T03:00:54;9.70;99.90
33699;DHT22;20032;52.436;13.312;2023-05-25T03:03:19;9.70;99.90
33699;DHT22;20032;52.436;13.312;2023-05-25T03:05:45;9.70;99.90
33699;DHT22;20032;52.436;13.312;2023-05-25T03:08:10;9.60;99.90
33699;DHT22;20032;52.436;13.312;2023-05-25T03:10:36;9.60;99.90
33699;DHT22;20032;52.436;13.312;2023-05-25T03:13:01;9.60;99.90
33699;DHT22;20032;52.436;13.312;2023-05-25T03:15:27;9.50;99.90
33699;DHT22;20032;52.436;13.312;2023-05-25T03:17:52;9.50;99.90
33699;DHT22;20032;52.436;13.312;2023-05-25T03:20:21;9.50;99.90
33699;DHT22;20032;52.436;13.312;2023-05-25T03:22:48;9.50;99.90
33699;DHT22;20032;52.436;13.312;2023-05-25T03:25:14;9.50;99.90
33699;DHT22;20032;52.436;13.312;2023-05-25T03:27:40;9.40;99.90
33699;DHT22;20032;52.436;13.312;2023-05-25T03:30:06;9.50;99.90
33699;DHT22;20032;52.436;13.312;2023-05-25T03:32:32;9.50;99.90
33699;DHT22;20032;52.436;13.312;2023-05-25T03:34:58;9.50;99.90
33699;DHT22;20032;52.436;13.312;2023-05-25T03:37:23;9.50;99.90
33699;DHT22;20032;52.436;13.312;2023-05-25T03:39:49;9.60;99.90
33699;DHT22;20032;52.436;13.312;2023-05-25T03:42:14;9.60;99.90
33699;DHT22;20032;52.436;13.312;2023-05-25T03:44:40;9.60;99.90
33699;DHT22;20032;52.436;13.312;2023-05-25T03:47:05;9.60;99.90
33699;DHT22;20032;52.436;13.312;2023-05-25T03:49:31;9.70;99.90
33699;DHT22;20032;52.436;13.312;2023-05-25T03:51:57;9.80;99.90
33699;DHT22;20032;52.436;13.312;2023-05-25T03:54:25;9.80;99.90
33699;DHT22;20032;52.436;13.312;2023-05-25T03:56:51;9.70;99.90
33699;DHT22;20032;52.436;13.312;2023-05-25T03:59:16;9.80;99.90
33699;DHT22;20032;52.436;13.312;2023-05-25T04:01:43;9.90;99.90
33699;DHT22;20032;52.436;13.312;2023-05-25T04:04:08;9.90;99.90
33699;DHT22;20032;52.436;13.312;2023-05-25T04:06:34;10.00;99.90
33699;DHT22;20032;52.436;13.312;2023-05-25T04:09:02;10.00;99.90
33699;DHT22;20032;52.436;13.312;2023-05-25T04:11:28;10.00;99.90
33699;DHT22;20032;52.436;13.312;2023-05-25T04:13:54;10.00;99.90
33699;DHT22;20032;52.436;13.312;2023-05-25T04:16:19;10.00;99.90
33699;DHT22;20032;52.436;13.312;2023-05-25T04:18:46;10.10;99.90
33699;DHT22;20032;52.436;13.312;2023-05-25T04:21:11;10.10;99.90
33699;DHT22;20032;52.436;13.312;2023-05-25T04:23:37;10.10;99.90
33699;DHT22;20032;52.436;13.312;2023-05-25T04:26:02;10.10;99.90
33699;DHT22;20032;52.436;13.312;2023-05-25T04:28:28;10.20;99.90
33699;DHT22;20032;52.436;13.312;2023-05-25T04:30:53;10.20;99.90
33699;DHT22;20032;52.436;13.312;2023-05-25T04:33:21;10.20;99.90
33699;DHT22;20032;52.436;13.312;2023-05-25T04:35:47;10.30;99.90
33699;DHT22;20032;52.436;13.312;2023-05-25T04:38:15;10.40;99.90
33699;DHT22;20032;52.436;13.312;2023-05-25T04:40:42;10.30;99.90
33699;DHT22;20032;52.436;13.312;2023-05-25T04:43:07;10.40;99.90
33699;DHT22;20032;52.436;13.312;2023-05-25T04:45:34;10.50;99.90
33699;DHT22;20032;52.436;13.312;2023-05-25T04:47:59;10.60;99.90
33699;DHT22;20032;52.436;13.312;2023-05-25T04:50:25;10.60;99.90
33699;DHT22;20032;52.436;13.312;2023-05-25T04:52:52;10.70;99.90
33699;DHT22;20032;52.436;13.312;2023-05-25T04:55:17;10.70;99.90
33699;DHT22;20032;52.436;13.312;2023-05-25T04:57:43;10.80;99.90
33699;DHT22;20032;52.436;13.312;2023-05-25T05:00:09;10.90;99.90
33699;DHT22;20032;52.436;13.312;2023-05-25T05:02:36;10.90;99.90
33699;DHT22;20032;52.436;13.312;2023-05-25T05:05:01;11.00;99.90
33699;DHT22;20032;52.436;13.312;2023-05-25T05:07:28;11.00;99.90
33699;DHT22;20032;52.436;13.312;2023-05-25T05:09:53;11.10;99.90
33699;DHT22;20032;52.436;13.312;2023-05-25T05:12:19;11.20;99.90
33699;DHT22;20032;52.436;13.312;2023-05-25T05:14:44;11.20;99.90
33699;DHT22;20032;52.436;13.312;2023-05-25T05:17:10;11.20;99.90
33699;DHT22;20032;52.436;13.312;2023-05-25T05:19:37;11.30;99.90
33699;DHT22;20032;52.436;13.312;2023-05-25T05:22:02;11.40;99.90
33699;DHT22;20032;52.436;13.312;2023-05-25T05:24:28;11.50;99.90
33699;DHT22;20032;52.436;13.312;2023-05-25T05:26:54;11.50;99.90
33699;DHT22;20032;52.436;13.312;2023-05-25T05:29:19;11.60;99.90
33699;DHT22;20032;52.436;13.312;2023-05-25T05:31:45;11.70;99.90
33699;DHT22;20032;52.436;13.312;2023-05-25T05:34:10;11.80;99.90
33699;DHT22;20032;52.436;13.312;2023-05-25T05:36:36;11.80;99.90
33699;DHT22;20032;52.436;13.312;2023-05-25T05:39:02;11.90;99.90
33699;DHT22;20032;52.436;13.312;2023-05-25T05:41:29;11.90;99.90
33699;DHT22;20032;52.436;13.312;2023-05-25T05:43:57;12.00;99.90
33699;DHT22;20032;52.436;13.312;2023-05-25T05:46:23;12.00;99.90
33699;DHT22;20032;52.436;13.312;2023-05-25T05:48:49;12.10;99.90
33699;DHT22;20032;52.436;13.312;2023-05-25T05:51:15;12.20;99.90
33699;DHT22;20032;52.436;13.312;2023-05-25T05:53:40;12.20;99.90
33699;DHT22;20032;52.436;13.312;2023-05-25T05:56:10;12.30;99.90
33699;DHT22;20032;52.436;13.312;2023-05-25T05:58:40;12.30;99.90
33699;DHT22;20032;52.436;13.312;2023-05-25T06:01:06;12.40;99.90
33699;DHT22;20032;52.436;13.312;2023-05-25T06:03:33;12.50;99.90
33699;DHT22;20032;52.436;13.312;2023-05-25T06:05:59;12.60;99.90
33699;DHT22;20032;52.436;13.312;2023-05-25T06:08:24;12.60;99.90
33699;DHT22;20032;52.436;13.312;2023-05-25T06:10:50;12.80;99.90
33699;DHT22;20032;52.436;13.312;2023-05-25T06:13:16;12.90;99.90
33699;DHT22;20032;52.436;13.312;2023-05-25T06:15:41;12.90;99.90
33699;DHT22;20032;52.436;13.312;2023-05-25T06:18:07;13.00;99.90
33699;DHT22;20032;52.436;13.312;2023-05-25T06:20:33;13.10;99.90
33699;DHT22;20032;52.436;13.312;2023-05-25T06:22:59;13.20;99.90
33699;DHT22;20032;52.436;13.312;2023-05-25T06:25:25;13.30;99.90
33699;DHT22;20032;52.436;13.312;2023-05-25T06:27:51;13.30;99.90
33699;DHT22;20032;52.436;13.312;2023-05-25T06:30:16;13.40;99.90
33699;DHT22;20032;52.436;13.312;2023-05-25T06:32:42;13.50;99.90
33699;DHT22;20032;52.436;13.312;2023-05-25T06:35:08;13.60;99.90
33699;DHT22;20032;52.436;13.312;2023-05-25T06:37:34;13.70;99.90
33699;DHT22;20032;52.436;13.312;2023-05-25T06:40:03;13.80;99.90
33699;DHT22;20032;52.436;13.312;2023-05-25T06:42:29;13.90;99.90
33699;DHT22;20032;52.436;13.312;2023-05-25T06:44:54;14.00;99.90
33699;DHT22;20032;52.436;13.312;2023-05-25T06:47:20;14.10;99.90
33699;DHT22;20032;52.436;13.312;2023-05-25T06:49:45;14.20;99.90
33699;DHT22;20032;52.436;13.312;2023-05-25T06:52:11;14.30;99.90
33699;DHT22;20032;52.436;13.312;2023-05-25T06:54:36;14.40;99.90
33699;DHT22;20032;52.436;13.312;2023-05-25T06:57:02;14.40;99.90
33699;DHT22;20032;52.436;13.312;2023-05-25T06:59:27;14.50;99.90
33699;DHT22;20032;52.436;13.312;2023-05-25T07:01:53;14.60;99.90
33699;DHT22;20032;52.436;13.312;2023-05-25T07:04:20;14.70;99.90
33699;DHT22;20032;52.436;13.312;2023-05-25T07:06:46;14.80;99.90
33699;DHT22;20032;52.436;13.312;2023-05-25T07:09:12;14.90;99.90
33699;DHT22;20032;52.436;13.312;2023-05-25T07:11:38;15.00;99.90
33699;DHT22;20032;52.436;13.312;2023-05-25T07:14:03;15.10;99.90
33699;DHT22;20032;52.436;13.312;2023-05-25T07:16:29;15.30;99.90
33699;DHT22;20032;52.436;13.312;2023-05-25T07:18:54;15.40;99.90
33699;DHT22;20032;52.436;13.312;2023-05-25T07:21:19;15.50;99.90
33699;DHT22;20032;52.436;13.312;2023-05-25T07:23:45;15.60;99.90
33699;DHT22;20032;52.436;13.312;2023-05-25T07:26:12;15.80;99.90
33699;DHT22;20032;52.436;13.312;2023-05-25T07:28:37;15.80;99.90
33699;DHT22;20032;52.436;13.312;2023-05-25T07:31:03;16.00;99.90
33699;DHT22;20032;52.436;13.312;2023-05-25T07:33:28;16.00;99.90
33699;DHT22;20032;52.436;13.312;2023-05-25T07:35:54;16.10;99.90
33699;DHT22;20032;52.436;13.312;2023-05-25T07:38:19;16.30;99.90
33699;DHT22;20032;52.436;13.312;2023-05-25T07:40:45;16.30;99.90
33699;DHT22;20032;52.436;13.312;2023-05-25T07:43:11;16.50;99.90
33699;DHT22;20032;52.436;13.312;2023-05-25T07:45:38;16.70;99.90
33699;DHT22;20032;52.436;13.312;2023-05-25T07:48:04;16.80;99.90
33699;DHT22;20032;52.436;13.312;2023-05-25T07:50:32;17.00;99.90
33699;DHT22;20032;52.436;13.312;2023-05-25T07:52:57;17.10;99.90
33699;DHT22;20032;52.436;13.312;2023-05-25T07:55:25;17.20;99.90
33699;DHT22;20032;52.436;13.312;2023-05-25T07:57:51;17.20;99.90
33699;DHT22;20032;52.436;13.312;2023-05-25T08:00:17;17.30;99.90
33699;DHT22;20032;52.436;13.312;2023-05-25T08:02:42;17.50;99.90
33699;DHT22;20032;52.436;13.312;2023-05-25T08:05:08;17.40;99.90
33699;DHT22;20032;52.436;13.312;2023-05-25T08:07:34;17.20;99.90
33699;DHT22;20032;52.436;13.312;2023-05-25T08:10:00;17.00;99.90
33699;DHT22;20032;52.436;13.312;2023-05-25T08:12:27;16.80;99.90
33699;DHT22;20032;52.436;13.312;2023-05-25T08:14:53;16.60;99.90
33699;DHT22;20032;52.436;13.312;2023-05-25T08:17:20;16.50;99.90
33699;DHT22;20032;52.436;13.312;2023-05-25T08:19:46;16.60;99.90
33699;DHT22;20032;52.436;13.312;2023-05-25T08:22:12;17.10;99.90
33699;DHT22;20032;52.436;13.312;2023-05-25T08:24:37;17.10;99.90
33699;DHT22;20032;52.436;13.312;2023-05-25T08:27:03;17.10;99.90
33699;DHT22;20032;52.436;13.312;2023-05-25T08:29:28;16.80;99.90
33699;DHT22;20032;52.436;13.312;2023-05-25T08:31:55;16.60;99.90
33699;DHT22;20032;52.436;13.312;2023-05-25T08:34:20;16.60;99.90
33699;DHT22;20032;52.436;13.312;2023-05-25T08:36:47;16.50;99.90
33699;DHT22;20032;52.436;13.312;2023-05-25T08:39:13;16.40;99.90
33699;DHT22;20032;52.436;13.312;2023-05-25T08:41:43;16.40;99.90
33699;DHT22;20032;52.436;13.312;2023-05-25T08:44:09;16.50;99.90
33699;DHT22;20032;52.436;13.312;2023-05-25T08:46:35;16.70;99.90
33699;DHT22;20032;52.436;13.312;2023-05-25T08:49:08;17.00;99.90
33699;DHT22;20032;52.436;13.312;2023-05-25T08:51:37;17.30;99.90
33699;DHT22;20032;52.436;13.312;2023-05-25T08:54:12;17.40;99.90
33699;DHT22;20032;52.436;13.312;2023-05-25T08:57:00;17.20;99.90
33699;DHT22;20032;52.436;13.312;2023-05-25T08:59:49;17.40;99.90
33699;DHT22;20032;52.436;13.312;2023-05-25T09:02:25;17.60;99.90
33699;DHT22;20032;52.436;13.312;2023-05-25T09:04:52;17.50;99.90
33699;DHT22;20032;52.436;13.312;2023-05-25T09:07:19;17.40;99.90
33699;DHT22;20032;52.436;13.312;2023-05-25T09:09:46;17.30;99.90
33699;DHT22;20032;52.436;13.312;2023-05-25T09:12:13;17.00;99.90
33699;DHT22;20032;52.436;13.312;2023-05-25T09:14:39;17.10;99.90
33699;DHT22;20032;52.436;13.312;2023-05-25T09:17:11;17.40;99.90
33699;DHT22;20032;52.436;13.312;2023-05-25T09:19:37;17.70;99.90
33699;DHT22;20032;52.436;13.312;2023-05-25T09:22:03;17.80;99.90
33699;DHT22;20032;52.436;13.312;2023-05-25T09:24:29;18.20;99.90
33699;DHT22;20032;52.436;13.312;2023-05-25T09:26:55;18.50;99.90
33699;DHT22;20032;52.436;13.312;2023-05-25T09:29:21;18.60;99.90
33699;DHT22;20032;52.436;13.312;2023-05-25T09:31:46;18.70;99.90
33699;DHT22;20032;52.436;13.312;2023-05-25T09:34:12;18.60;99.90
33699;DHT22;20032;52.436;13.312;2023-05-25T09:36:40;18.50;99.90
33699;DHT22;20032;52.436;13.312;2023-05-25T09:39:09;18.30;99.90
33699;DHT22;20032;52.436;13.312;2023-05-25T09:41:36;18.40;99.90
33699;DHT22;20032;52.436;13.312;2023-05-25T09:44:03;18.70;99.90
33699;DHT22;20032;52.436;13.312;2023-05-25T09:46:29;18.90;99.90
33699;DHT22;20032;52.436;13.312;2023-05-25T09:48:56;18.60;99.90
33699;DHT22;20032;52.436;13.312;2023-05-25T09:51:22;18.40;99.90
33699;DHT22;20032;52.436;13.312;2023-05-25T09:53:48;18.50;99.90
33699;DHT22;20032;52.436;13.312;2023-05-25T09:56:13;18.50;99.90
33699;DHT22;20032;52.436;13.312;2023-05-25T09:58:40;18.60;99.90
33699;DHT22;20032;52.436;13.312;2023-05-25T10:01:06;18.90;99.90
33699;DHT22;20032;52.436;13.312;2023-05-25T10:03:32;19.00;99.90
33699;DHT22;20032;52.436;13.312;2023-05-25T10:05:58;18.90;99.90
33699;DHT22;20032;52.436;13.312;2023-05-25T10:08:25;19.00;99.90
33699;DHT22;20032;52.436;13.312;2023-05-25T10:10:51;18.80;99.90
33699;DHT22;20032;52.436;13.312;2023-05-25T10:13:20;18.80;99.90
33699;DHT22;20032;52.436;13.312;2023-05-25T10:15:47;18.70;99.90
33699;DHT22;20032;52.436;13.312;2023-05-25T10:18:17;18.70;99.90
33699;DHT22;20032;52.436;13.312;2023-05-25T10:20:47;18.70;99.90
33699;DHT22;20032;52.436;13.312;2023-05-25T10:23:15;18.70;99.90
33699;DHT22;20032;52.436;13.312;2023-05-25T10:25:46;18.60;99.90
33699;DHT22;20032;52.436;13.312;2023-05-25T10:28:20;18.60;99.90
33699;DHT22;20032;52.436;13.312;2023-05-25T10:30:48;19.20;99.90
33699;DHT22;20032;52.436;13.312;2023-05-25T10:33:14;19.80;99.90
33699;DHT22;20032;52.436;13.312;2023-05-25T10:35:42;20.30;99.90
33699;DHT22;20032;52.436;13.312;2023-05-25T10:38:09;20.30;99.90
33699;DHT22;20032;52.436;13.312;2023-05-25T10:40:37;20.50;99.90
33699;DHT22;20032;52.436;13.312;2023-05-25T10:43:04;20.60;99.90
33699;DHT22;20032;52.436;13.312;2023-05-25T10:45:30;20.40;99.90
33699;DHT22;20032;52.436;13.312;2023-05-25T10:47:56;19.90;99.90
33699;DHT22;20032;52.436;13.312;2023-05-25T10:50:24;19.70;99.90
33699;DHT22;20032;52.436;13.312;2023-05-25T10:53:05;20.00;99.90
33699;DHT22;20032;52.436;13.312;2023-05-25T10:55:59;20.40;99.90
33699;DHT22;20032;52.436;13.312;2023-05-25T10:58:26;20.30;99.90
33699;DHT22;20032;52.436;13.312;2023-05-25T11:01:02;20.20;99.90
33699;DHT22;20032;52.436;13.312;2023-05-25T11:03:47;20.30;99.90
33699;DHT22;20032;52.436;13.312;2023-05-25T11:06:14;20.70;99.90
33699;DHT22;20032;52.436;13.312;2023-05-25T11:08:57;21.10;99.90
33699;DHT22;20032;52.436;13.312;2023-05-25T11:14:29;20.60;99.90
33699;DHT22;20032;52.436;13.312;2023-05-25T11:17:17;20.30;99.90
33699;DHT22;20032;52.436;13.312;2023-05-25T11:19:45;20.50;99.90
33699;DHT22;20032;52.436;13.312;2023-05-25T11:22:32;20.90;99.90
33699;DHT22;20032;52.436;13.312;2023-05-25T11:25:00;20.70;99.90
33699;DHT22;20032;52.436;13.312;2023-05-25T11:27:29;20.50;99.90
33699;DHT22;20032;52.436;13.312;2023-05-25T11:29:56;21.10;99.90
33699;DHT22;20032;52.436;13.312;2023-05-25T11:32:23;21.70;99.90
33699;DHT22;20032;52.436;13.312;2023-05-25T11:34:52;22.30;98.90
33699;DHT22;20032;52.436;13.312;2023-05-25T11:37:19;22.50;98.20
33699;DHT22;20032;52.436;13.312;2023-05-25T11:39:46;22.10;97.30
33699;DHT22;20032;52.436;13.312;2023-05-25T11:42:14;22.40;98.40
33699;DHT22;20032;52.436;13.312;2023-05-25T11:44:39;23.10;97.20
33699;DHT22;20032;52.436;13.312;2023-05-25T11:47:07;23.50;96.20
33699;DHT22;20032;52.436;13.312;2023-05-25T11:49:34;23.90;94.40
33699;DHT22;20032;52.436;13.312;2023-05-25T11:52:04;24.20;94.40
33699;DHT22;20032;52.436;13.312;2023-05-25T11:54:31;24.10;94.20
33699;DHT22;20032;52.436;13.312;2023-05-25T11:56:58;24.20;94.20
33699;DHT22;20032;52.436;13.312;2023-05-25T11:59:25;24.00;94.10
33699;DHT22;20032;52.436;13.312;2023-05-25T12:01:55;24.20;94.60
33699;DHT22;20032;52.436;13.312;2023-05-25T12:04:21;24.30;92.80
33699;DHT22;20032;52.436;13.312;2023-05-25T12:06:47;23.60;93.80
33699;DHT22;20032;52.436;13.312;2023-05-25T12:09:18;22.80;94.30
33699;DHT22;20032;52.436;13.312;2023-05-25T12:11:44;22.00;95.60
33699;DHT22;20032;52.436;13.312;2023-05-25T12:14:10;21.70;96.20
33699;DHT22;20032;52.436;13.312;2023-05-25T12:16:36;21.70;95.70
33699;DHT22;20032;52.436;13.312;2023-05-25T12:19:04;22.60;95.90
33699;DHT22;20032;52.436;13.312;2023-05-25T12:21:31;23.30;94.70
33699;DHT22;20032;52.436;13.312;2023-05-25T12:23:59;22.60;96.20
33699;DHT22;20032;52.436;13.312;2023-05-25T12:26:26;21.80;97.10
33699;DHT22;20032;52.436;13.312;2023-05-25T12:29:07;21.50;97.60
33699;DHT22;20032;52.436;13.312;2023-05-25T12:31:35;20.90;98.50
33699;DHT22;20032;52.436;13.312;2023-05-25T12:36:37;20.50;99.20
33699;DHT22;20032;52.436;13.312;2023-05-25T12:39:03;20.50;99.90
33699;DHT22;20032;52.436;13.312;2023-05-25T12:41:29;20.50;99.40
33699;DHT22;20032;52.436;13.312;2023-05-25T12:43:56;21.00;99.10
33699;DHT22;20032;52.436;13.312;2023-05-25T12:46:24;21.10;99.10
33699;DHT22;20032;52.436;13.312;2023-05-25T12:48:50;21.90;98.40
33699;DHT22;20032;52.436;13.312;2023-05-25T12:51:16;23.00;96.40
33699;DHT22;20032;52.436;13.312;2023-05-25T12:53:48;24.00;94.90
33699;DHT22;20032;52.436;13.312;2023-05-25T12:56:14;24.60;94.20
33699;DHT22;20032;52.436;13.312;2023-05-25T12:58:40;24.90;93.80
33699;DHT22;20032;52.436;13.312;2023-05-25T13:01:07;25.20;94.20
33699;DHT22;20032;52.436;13.312;2023-05-25T13:03:33;24.70;94.20
33699;DHT22;20032;52.436;13.312;2023-05-25T13:06:00;23.50;95.50
33699;DHT22;20032;52.436;13.312;2023-05-25T13:08:26;22.40;96.50
33699;DHT22;20032;52.436;13.312;2023-05-25T13:10:54;21.60;98.00
33699;DHT22;20032;52.436;13.312;2023-05-25T13:13:19;21.10;98.50
33699;DHT22;20032;52.436;13.312;2023-05-25T13:15:45;20.90;99.40
33699;DHT22;20032;52.436;13.312;2023-05-25T13:18:11;21.30;99.60
33699;DHT22;20032;52.436;13.312;2023-05-25T13:20:36;22.30;98.40
33699;DHT22;20032;52.436;13.312;2023-05-25T13:23:03;23.40;97.20
33699;DHT22;20032;52.436;13.312;2023-05-25T13:25:30;24.40;95.30
33699;DHT22;20032;52.436;13.312;2023-05-25T13:27:56;25.00;93.80
33699;DHT22;20032;52.436;13.312;2023-05-25T13:30:24;25.20;92.70
33699;DHT22;20032;52.436;13.312;2023-05-25T13:32:50;24.20;94.00
33699;DHT22;20032;52.436;13.312;2023-05-25T13:35:16;23.80;94.60
33699;DHT22;20032;52.436;13.312;2023-05-25T13:37:46;24.70;93.60
33699;DHT22;20032;52.436;13.312;2023-05-25T13:40:12;25.20;92.50
33699;DHT22;20032;52.436;13.312;2023-05-25T13:42:38;24.80;92.90
33699;DHT22;20032;52.436;13.312;2023-05-25T13:45:03;23.80;94.70
33699;DHT22;20032;52.436;13.312;2023-05-25T13:47:29;23.50;94.90
33699;DHT22;20032;52.436;13.312;2023-05-25T13:49:54;23.00;96.00
33699;DHT22;20032;52.436;13.312;2023-05-25T13:52:20;22.60;96.30
33699;DHT22;20032;52.436;13.312;2023-05-25T13:54:45;23.30;96.30
33699;DHT22;20032;52.436;13.312;2023-05-25T13:57:11;24.10;95.00
33699;DHT22;20032;52.436;13.312;2023-05-25T13:59:36;23.80;94.20
33699;DHT22;20032;52.436;13.312;2023-05-25T14:02:02;22.90;95.30
33699;DHT22;20032;52.436;13.312;2023-05-25T14:04:28;22.30;96.70
33699;DHT22;20032;52.436;13.312;2023-05-25T14:06:53;22.40;97.10
33699;DHT22;20032;52.436;13.312;2023-05-25T14:09:19;22.30;97.00
33699;DHT22;20032;52.436;13.312;2023-05-25T14:11:45;23.00;95.70
33699;DHT22;20032;52.436;13.312;2023-05-25T14:14:10;22.50;96.00
33699;DHT22;20032;52.436;13.312;2023-05-25T14:16:37;22.10;96.90
33699;DHT22;20032;52.436;13.312;2023-05-25T14:19:03;21.90;97.50
33699;DHT22;20032;52.436;13.312;2023-05-25T14:21:29;21.60;98.00
33699;DHT22;20032;52.436;13.312;2023-05-25T14:23:55;21.60;97.00
33699;DHT22;20032;52.436;13.312;2023-05-25T14:26:23;22.00;96.50
33699;DHT22;20032;52.436;13.312;2023-05-25T14:28:48;23.20;95.50
33699;DHT22;20032;52.436;13.312;2023-05-25T14:31:14;23.00;94.20
33699;DHT22;20032;52.436;13.312;2023-05-25T14:33:39;22.40;95.10
33699;DHT22;20032;52.436;13.312;2023-05-25T14:36:05;21.80;95.90
33699;DHT22;20032;52.436;13.312;2023-05-25T14:38:31;21.40;96.30
33699;DHT22;20032;52.436;13.312;2023-05-25T14:40:57;21.00;97.20
33699;DHT22;20032;52.436;13.312;2023-05-25T14:43:22;20.90;97.30
33699;DHT22;20032;52.436;13.312;2023-05-25T14:45:48;21.80;96.50
33699;DHT22;20032;52.436;13.312;2023-05-25T14:48:13;22.60;95.50
33699;DHT22;20032;52.436;13.312;2023-05-25T14:50:39;22.60;95.30
33699;DHT22;20032;52.436;13.312;2023-05-25T14:53:06;23.20;94.30
33699;DHT22;20032;52.436;13.312;2023-05-25T14:55:32;24.00;93.40
33699;DHT22;20032;52.436;13.312;2023-05-25T14:57:57;23.20;94.00
33699;DHT22;20032;52.436;13.312;2023-05-25T15:00:23;23.00;94.60
33699;DHT22;20032;52.436;13.312;2023-05-25T15:02:50;23.60;93.50
33699;DHT22;20032;52.436;13.312;2023-05-25T15:05:15;24.60;92.10
33699;DHT22;20032;52.436;13.312;2023-05-25T15:07:41;24.90;91.70
33699;DHT22;20032;52.436;13.312;2023-05-25T15:10:07;25.40;91.50
33699;DHT22;20032;52.436;13.312;2023-05-25T15:12:32;26.10;90.40
33699;DHT22;20032;52.436;13.312;2023-05-25T15:14:58;26.00;90.60
33699;DHT22;20032;52.436;13.312;2023-05-25T15:17:23;24.70;91.70
33699;DHT22;20032;52.436;13.312;2023-05-25T15:19:52;23.60;92.60
33699;DHT22;20032;52.436;13.312;2023-05-25T15:22:17;23.60;92.40